createdAt,value
2019-05-25T00:01:01.609Z,94727.16
2019-05-25T00:03:30.219Z,94723.72
2019-05-25T00:05:58.865Z,94726.52
2019-05-25T00:08:27.539Z,94729.38
2019-05-25T00:10:56.205Z,94731.35
2019-05-25T00:13:24.849Z,94729.38
2019-05-25T00:15:53.485Z,94728.77
2019-05-25T00:18:22.061Z,94733.19
2019-05-25T00:20:50.741Z,94727.88
2019-05-25T00:23:19.298Z,94739.58
2019-05-25T00:25:47.935Z,94738.78
2019-05-25T00:28:16.571Z,94740.88
2019-05-25T00:30:45.352Z,94741.16
2019-05-25T00:33:13.975Z,94740.84
2019-05-25T00:35:42.690Z,94744.24
2019-05-25T00:38:11.266Z,94749.18
2019-05-25T00:40:39.890Z,94752.39
2019-05-25T00:43:08.579Z,94748.44
2019-05-25T00:45:37.229Z,94755.56
2019-05-25T00:48:05.894Z,94750.90
2019-05-25T00:50:34.521Z,94753.32
2019-05-25T00:53:03.214Z,94750.15
2019-05-25T00:55:31.954Z,94751.73
2019-05-25T00:58:00.522Z,94750.80
2019-05-25T01:00:29.247Z,94755.78
2019-05-25T01:02:57.904Z,94754.75
2019-05-25T01:05:26.518Z,94759.78
2019-05-25T01:07:55.753Z,94753.77
2019-05-25T01:10:24.397Z,94747.75
2019-05-25T01:12:53.047Z,94759.51
2019-05-25T01:15:21.876Z,94757.73
2019-05-25T01:17:51.227Z,94762.67
2019-05-25T01:20:20.156Z,94751.95
2019-05-25T01:22:49.017Z,94757.92
2019-05-25T01:25:17.876Z,94765.23
2019-05-25T01:27:46.510Z,94760.02
2019-05-25T01:30:15.925Z,94764.68
2019-05-25T01:32:44.566Z,94764.16
2019-05-25T01:35:13.811Z,94758.75
2019-05-25T01:37:42.446Z,94763.30
2019-05-25T01:40:11.580Z,94758.34
2019-05-25T01:42:40.222Z,94762.27
2019-05-25T01:45:09.532Z,94760.44
2019-05-25T01:47:38.175Z,94757.23
2019-05-25T01:50:07.030Z,94760.03
2019-05-25T01:52:35.610Z,94767.06
2019-05-25T01:55:05.457Z,94762.08
2019-05-25T01:57:34.136Z,94755.04
2019-05-25T02:00:03.000Z,94763.61
2019-05-25T02:02:31.642Z,94758.39
2019-05-25T02:05:00.309Z,94752.20
2019-05-25T02:07:28.875Z,94759.84
2019-05-25T02:09:57.522Z,94753.65
2019-05-25T02:12:26.145Z,94757.84
2019-05-25T02:14:54.831Z,94755.84
2019-05-25T02:17:23.469Z,94764.00
2019-05-25T02:19:52.115Z,94766.41
2019-05-25T02:22:20.969Z,94767.48
2019-05-25T02:24:49.613Z,94767.20
2019-05-25T02:27:18.270Z,94768.04
2019-05-25T02:29:46.905Z,94766.83
2019-05-25T02:32:15.545Z,94775.45
2019-05-25T02:34:44.183Z,94771.26
2019-05-25T02:37:12.983Z,94755.55
2019-05-25T02:39:41.549Z,94767.39
2019-05-25T02:42:10.193Z,94764.69
2019-05-25T02:44:38.847Z,94764.87
2019-05-25T02:47:07.484Z,94770.14
2019-05-25T02:49:36.061Z,94770.15
2019-05-25T02:52:04.703Z,94773.55
2019-05-25T02:54:33.383Z,94758.31
2019-05-25T02:57:02.026Z,94770.38
2019-05-25T02:59:30.655Z,94775.26
2019-05-25T03:01:59.708Z,94771.36
2019-05-25T03:04:28.353Z,94776.98
2019-05-25T03:06:57.920Z,94776.47
2019-05-25T03:09:28.003Z,94777.95
2019-05-25T03:11:59.529Z,94782.42
2019-05-25T03:14:28.415Z,94783.41
2019-05-25T03:16:57.052Z,94781.95
2019-05-25T03:19:25.703Z,94787.87
2019-05-25T03:21:54.276Z,94787.92
2019-05-25T03:24:22.975Z,94793.75
2019-05-25T03:26:51.618Z,94792.60
2019-05-25T03:29:20.312Z,94789.62
2019-05-25T03:31:48.925Z,94788.92
2019-05-25T03:34:17.531Z,94792.92
2019-05-25T03:36:46.117Z,94795.63
2019-05-25T03:39:14.752Z,94800.45
2019-05-25T03:41:43.405Z,94795.52
2019-05-25T03:44:12.041Z,94798.84
2019-05-25T03:46:40.689Z,94805.14
2019-05-25T03:49:09.318Z,94808.02
2019-05-25T03:51:38.056Z,94809.92
2019-05-25T03:54:07.214Z,94807.14
2019-05-25T03:56:35.853Z,94812.96
2019-05-25T03:59:04.491Z,94813.80
2019-05-25T04:01:33.067Z,94813.08
2019-05-25T04:04:01.632Z,94815.48
2019-05-25T04:06:30.317Z,94816.89
2019-05-25T04:08:58.828Z,94810.45
2019-05-25T04:11:27.393Z,94806.66
2019-05-25T04:13:55.952Z,94806.19
2019-05-25T04:16:24.599Z,94815.76
2019-05-25T04:18:53.252Z,94812.23
2019-05-25T04:21:21.815Z,94805.03
2019-05-25T04:23:50.391Z,94807.52
2019-05-25T04:26:22.486Z,94810.47
2019-05-25T04:28:49.566Z,94808.67
2019-05-25T04:31:18.140Z,94808.75
2019-05-25T04:33:47.720Z,94815.06
2019-05-25T04:36:16.382Z,94813.27
2019-05-25T04:38:45.055Z,94816.68
2019-05-25T04:41:13.729Z,94812.48
2019-05-25T04:43:42.359Z,94813.02
2019-05-25T04:46:11.099Z,94813.80
2019-05-25T04:48:39.741Z,94819.55
2019-05-25T04:51:08.387Z,94825.02
2019-05-25T04:53:37.021Z,94822.39
2019-05-25T04:56:05.653Z,94822.39
2019-05-25T04:58:34.216Z,94822.13
2019-05-25T05:01:02.861Z,94822.69
2019-05-25T05:03:31.724Z,94820.06
2019-05-25T05:06:00.287Z,94826.37
2019-05-25T05:08:28.923Z,94826.90
2019-05-25T05:10:57.566Z,94831.91
2019-05-25T05:13:26.207Z,94825.09
2019-05-25T05:15:54.846Z,94839.00
2019-05-25T05:18:23.468Z,94838.23
2019-05-25T05:20:52.239Z,94846.39
2019-05-25T05:23:20.961Z,94849.78
2019-05-25T05:25:49.589Z,94845.01
2019-05-25T05:28:18.153Z,94852.00
2019-05-25T05:30:46.862Z,94846.29
2019-05-25T05:33:15.512Z,94848.52
2019-05-25T05:35:45.156Z,94850.11
2019-05-25T05:38:14.131Z,94837.42
2019-05-25T05:40:43.173Z,94840.13
2019-05-25T05:43:11.817Z,94844.61
2019-05-25T05:45:42.831Z,94843.05
2019-05-25T05:48:12.227Z,94846.80
2019-05-25T05:50:41.823Z,94850.52
2019-05-25T05:53:10.562Z,94845.33
2019-05-25T05:55:39.145Z,94849.70
2019-05-25T05:58:07.776Z,94842.08
2019-05-25T06:00:36.441Z,94850.72
2019-05-25T06:03:05.177Z,94844.99
2019-05-25T06:05:33.802Z,94851.28
2019-05-25T06:08:02.445Z,94854.39
2019-05-25T06:10:31.182Z,94853.63
2019-05-25T06:12:59.823Z,94848.49
2019-05-25T06:15:28.461Z,94850.96
2019-05-25T06:17:57.367Z,94850.88
2019-05-25T06:20:26.097Z,94857.30
2019-05-25T06:22:54.741Z,94859.27
2019-05-25T06:25:23.383Z,94861.53
2019-05-25T06:27:52.010Z,94864.97
2019-05-25T06:30:21.255Z,94863.91
2019-05-25T06:32:49.910Z,94862.95
2019-05-25T06:35:20.916Z,94858.99
2019-05-25T06:37:49.657Z,94867.89
2019-05-25T06:40:18.693Z,94868.62
2019-05-25T06:42:47.335Z,94873.81
2019-05-25T06:45:16.273Z,94867.55
2019-05-25T06:47:44.920Z,94864.39
2019-05-25T06:50:13.767Z,94863.97
2019-05-25T06:52:42.492Z,94858.25
2019-05-25T06:55:11.274Z,94866.70
2019-05-25T06:57:43.723Z,94869.25
2019-05-25T07:00:10.734Z,94863.80
2019-05-25T07:02:39.355Z,94873.34
2019-05-25T07:05:08.898Z,94868.98
2019-05-25T07:07:37.757Z,94874.73
2019-05-25T07:10:09.438Z,94862.81
2019-05-25T07:12:38.116Z,94873.22
2019-05-25T07:15:07.945Z,94873.31
2019-05-25T07:17:36.589Z,94871.94
2019-05-25T07:20:06.899Z,94877.25
2019-05-25T07:22:35.557Z,94881.38
2019-05-25T07:25:05.383Z,94883.47
2019-05-25T07:27:34.240Z,94886.94
2019-05-25T07:30:03.063Z,94888.44
2019-05-25T07:32:31.709Z,94881.31
2019-05-25T07:35:00.336Z,94879.78
2019-05-25T07:37:28.917Z,94889.17
2019-05-25T07:39:57.470Z,94883.68
2019-05-25T07:42:26.108Z,94881.68
2019-05-25T07:44:54.980Z,94878.81
2019-05-25T07:47:23.599Z,94881.34
2019-05-25T07:49:52.168Z,94877.67
2019-05-25T07:52:20.738Z,94880.05
2019-05-25T07:54:49.375Z,94877.37
2019-05-25T07:57:18.004Z,94879.55
2019-05-25T07:59:46.652Z,94888.87
2019-05-25T08:02:15.470Z,94899.08
2019-05-25T08:04:44.108Z,94898.37
2019-05-25T08:07:12.735Z,94901.92
2019-05-25T08:09:41.375Z,94903.53
2019-05-25T08:12:09.992Z,94902.53
2019-05-25T08:14:38.642Z,94910.58
2019-05-25T08:17:07.277Z,94903.89
2019-05-25T08:19:35.920Z,94898.78
2019-05-25T08:22:04.645Z,94907.39
2019-05-25T08:24:33.323Z,94912.52
2019-05-25T08:27:01.950Z,94921.45
2019-05-25T08:29:30.512Z,94923.22
2019-05-25T08:31:59.164Z,94917.18
2019-05-25T08:34:27.796Z,94918.88
2019-05-25T08:36:56.448Z,94929.52
2019-05-25T08:39:25.083Z,94925.39
2019-05-25T08:41:53.605Z,94929.96
2019-05-25T08:44:22.248Z,94930.33
2019-05-25T08:46:50.883Z,94930.73
2019-05-25T08:49:19.551Z,94938.94
2019-05-25T08:51:48.169Z,94934.27
2019-05-25T08:54:16.815Z,94932.66
2019-05-25T08:56:45.445Z,94932.61
2019-05-25T08:59:14.018Z,94936.28
2019-05-25T09:01:42.664Z,94939.89
2019-05-25T09:04:11.357Z,94946.30
2019-05-25T09:06:40.026Z,94938.88
2019-05-25T09:09:09.009Z,94935.92
2019-05-25T09:11:37.719Z,94936.31
2019-05-25T09:14:06.317Z,94934.52
2019-05-25T09:16:34.965Z,94938.61
2019-05-25T09:19:03.621Z,94943.19
2019-05-25T09:21:32.258Z,94942.80
2019-05-25T09:24:01.111Z,94937.16
2019-05-25T09:26:29.783Z,94940.66
2019-05-25T09:29:04.678Z,94942.66
2019-05-25T09:31:29.086Z,94950.80
2019-05-25T09:33:57.711Z,94944.30
2019-05-25T09:36:26.355Z,94948.63
2019-05-25T09:38:54.991Z,94947.63
2019-05-25T09:41:23.701Z,94950.72
2019-05-25T09:43:52.330Z,94948.27
2019-05-25T09:46:20.949Z,94959.39
2019-05-25T09:48:49.594Z,94955.23
2019-05-25T09:51:18.226Z,94954.23
2019-05-25T09:53:46.891Z,94955.45
2019-05-25T09:56:15.524Z,94953.80
2019-05-25T09:58:44.169Z,94954.85
2019-05-25T10:01:12.801Z,94950.45
2019-05-25T10:03:41.429Z,94953.22
2019-05-25T10:06:13.087Z,94948.06
2019-05-25T10:08:40.518Z,94956.77
2019-05-25T10:11:09.145Z,94973.73
2019-05-25T10:13:37.787Z,94984.45
2019-05-25T10:16:06.519Z,94990.71
2019-05-25T10:18:35.170Z,94981.47
2019-05-25T10:21:04.002Z,94968.39
2019-05-25T10:23:32.655Z,94971.88
2019-05-25T10:26:01.275Z,94968.76
2019-05-25T10:28:29.905Z,94970.13
2019-05-25T10:30:58.546Z,94968.55
2019-05-25T10:33:27.180Z,94964.78
2019-05-25T10:35:55.811Z,94965.54
2019-05-25T10:38:24.429Z,94962.30
2019-05-25T10:40:53.077Z,94959.55
2019-05-25T10:43:21.928Z,94962.48
2019-05-25T10:45:50.584Z,94961.48
2019-05-25T10:48:19.204Z,94954.55
2019-05-25T10:50:47.846Z,94949.97
2019-05-25T10:53:16.477Z,94945.28
2019-05-25T10:55:45.112Z,94942.23
2019-05-25T10:58:13.747Z,94933.29
2019-05-25T11:00:42.454Z,94932.29
2019-05-25T11:03:11.113Z,94924.52
2019-05-25T11:05:39.756Z,94934.02
2019-05-25T11:08:08.390Z,94926.83
2019-05-25T11:10:37.037Z,94927.94
2019-05-25T11:13:05.699Z,94922.75
2019-05-25T11:15:34.346Z,94932.23
2019-05-25T11:18:02.986Z,94922.19
2019-05-25T11:20:31.615Z,94921.29
2019-05-25T11:23:00.380Z,94927.87
2019-05-25T11:25:29.021Z,94916.33
2019-05-25T11:27:57.648Z,94919.97
2019-05-25T11:30:26.372Z,94904.20
2019-05-25T11:32:55.246Z,94914.41
2019-05-25T11:35:24.606Z,94921.88
2019-05-25T11:37:53.241Z,94926.86
2019-05-25T11:40:23.330Z,94923.94
2019-05-25T11:42:52.009Z,94926.08
2019-05-25T11:45:21.172Z,94929.57
2019-05-25T11:47:49.823Z,94922.37
2019-05-25T11:50:18.761Z,94925.48
2019-05-25T11:52:47.499Z,94929.02
2019-05-25T11:55:17.824Z,94929.20
2019-05-25T11:57:46.463Z,94931.92
2019-05-25T12:00:25.034Z,94931.69
2019-05-25T12:02:48.313Z,94937.52
2019-05-25T12:05:16.961Z,94934.26
2019-05-25T12:07:45.678Z,94936.09
2019-05-25T12:10:15.941Z,94930.58
2019-05-25T12:12:44.577Z,94932.55
2019-05-25T12:15:13.479Z,94927.16
2019-05-25T12:17:42.111Z,94925.09
2019-05-25T12:20:11.040Z,94931.34
2019-05-25T12:22:39.692Z,94924.70
2019-05-25T12:25:09.207Z,94924.09
2019-05-25T12:27:37.852Z,94927.11
2019-05-25T12:30:07.279Z,94933.42
2019-05-25T12:32:35.949Z,94928.11
2019-05-25T12:35:06.385Z,94915.00
2019-05-25T12:37:35.200Z,94927.45
2019-05-25T12:40:05.495Z,94916.13
2019-05-25T12:42:34.209Z,94915.63
2019-05-25T12:45:02.939Z,94913.69
2019-05-25T12:47:31.656Z,94909.98
2019-05-25T12:50:00.423Z,94912.73
2019-05-25T12:52:29.163Z,94922.08
2019-05-25T12:54:57.868Z,94923.03
2019-05-25T12:57:26.499Z,94916.87
2019-05-25T12:59:55.122Z,94919.52
2019-05-25T13:05:16.057Z,94920.67
2019-05-25T13:07:44.697Z,94920.06
2019-05-25T13:10:13.730Z,94917.56
2019-05-25T13:12:42.402Z,94921.46
2019-05-25T13:15:11.202Z,94925.77
2019-05-25T13:17:39.866Z,94925.89
2019-05-25T13:20:08.700Z,94917.32
2019-05-25T13:22:37.338Z,94911.55
2019-05-25T13:25:07.461Z,94907.16
2019-05-25T13:27:36.183Z,94910.50
2019-05-25T13:30:09.583Z,94906.89
2019-05-25T13:32:38.202Z,94913.36
2019-05-25T13:35:08.035Z,94910.95
2019-05-25T13:37:36.677Z,94914.22
2019-05-25T13:40:06.782Z,94912.61
2019-05-25T13:42:35.442Z,94907.66
2019-05-25T13:45:05.622Z,94909.33
2019-05-25T13:47:34.264Z,94909.77
2019-05-25T13:50:03.296Z,94907.36
2019-05-25T13:52:31.947Z,94896.33
2019-05-25T13:55:00.586Z,94909.34
2019-05-25T13:57:29.269Z,94902.59
2019-05-25T13:59:57.914Z,94900.37
2019-05-25T14:02:26.544Z,94903.20
2019-05-25T14:04:55.282Z,94900.79
2019-05-25T14:07:23.923Z,94899.80
2019-05-25T14:09:52.571Z,94893.35
2019-05-25T14:12:21.468Z,94896.91
2019-05-25T14:14:50.123Z,94892.61
2019-05-25T14:17:18.758Z,94887.73
2019-05-25T14:19:47.449Z,94883.59
2019-05-25T14:22:16.110Z,94892.24
2019-05-25T14:24:44.761Z,94891.37
2019-05-25T14:27:13.423Z,94896.20
2019-05-25T14:29:42.132Z,94892.94
2019-05-25T14:32:10.791Z,94896.55
2019-05-25T14:34:39.424Z,94903.92
2019-05-25T14:37:08.282Z,94897.98
2019-05-25T14:39:36.933Z,94898.02
2019-05-25T14:42:05.586Z,94907.53
2019-05-25T14:44:34.230Z,94907.06
2019-05-25T14:47:02.863Z,94901.27
2019-05-25T14:49:31.505Z,94896.56
2019-05-25T14:52:00.145Z,94900.42
2019-05-25T14:54:28.789Z,94896.20
2019-05-25T14:56:57.423Z,94891.28
2019-05-25T14:59:26.125Z,94890.83
2019-05-25T15:02:02.353Z,94887.61
2019-05-25T15:04:25.127Z,94888.23
2019-05-25T15:06:53.846Z,94889.45
2019-05-25T15:09:22.512Z,94883.71
2019-05-25T15:11:53.797Z,94885.08
2019-05-25T15:14:21.562Z,94890.89
2019-05-25T15:16:50.237Z,94887.34
2019-05-25T15:19:19.024Z,94883.58
2019-05-25T15:21:47.750Z,94885.70
2019-05-25T15:24:16.393Z,94887.05
2019-05-25T15:26:45.210Z,94884.08
2019-05-25T15:29:13.966Z,94889.22
2019-05-25T15:31:42.596Z,94888.98
2019-05-25T15:34:11.368Z,94902.85
2019-05-25T15:36:41.626Z,94896.03
2019-05-25T15:39:10.277Z,94891.13
2019-05-25T15:41:38.917Z,94895.81
2019-05-25T15:44:07.579Z,94892.91
2019-05-25T15:46:36.238Z,94897.62
2019-05-25T15:49:04.874Z,94907.32
2019-05-25T15:51:33.530Z,94904.61
2019-05-25T15:54:02.220Z,94899.98
2019-05-25T15:56:30.958Z,94903.55
2019-05-25T15:58:59.593Z,94904.48
2019-05-25T16:01:28.403Z,94906.84
2019-05-25T16:03:57.117Z,94909.00
2019-05-25T16:06:25.757Z,94908.55
2019-05-25T16:08:55.293Z,94911.83
2019-05-25T16:11:23.928Z,94907.70
2019-05-25T16:13:52.631Z,94914.38
2019-05-25T16:16:29.639Z,94919.25
2019-05-25T16:18:51.787Z,94917.77
2019-05-25T16:21:20.419Z,94920.28
2019-05-25T16:23:49.069Z,94918.03
2019-05-25T16:26:17.729Z,94921.59
2019-05-25T16:28:46.412Z,94931.55
2019-05-25T16:31:15.056Z,94927.15
2019-05-25T16:33:43.707Z,94933.02
2019-05-25T16:36:12.354Z,94930.70
2019-05-25T16:38:40.993Z,94938.38
2019-05-25T16:41:09.647Z,94945.48
2019-05-25T16:43:38.304Z,94941.78
2019-05-25T16:46:07.091Z,94942.25
2019-05-25T16:48:35.730Z,94945.15
2019-05-25T16:51:04.381Z,94949.81
2019-05-25T16:53:33.027Z,94946.86
2019-05-25T16:56:01.663Z,94941.59
2019-05-25T16:58:30.421Z,94949.74
2019-05-25T17:00:59.675Z,94949.28
2019-05-25T17:03:29.445Z,94949.31
2019-05-25T17:05:58.101Z,94953.34
2019-05-25T17:08:26.877Z,94950.81
2019-05-25T17:10:55.527Z,94961.42
2019-05-25T17:13:24.166Z,94959.94
2019-05-25T17:15:52.781Z,94964.75
2019-05-25T17:18:21.410Z,94967.45
2019-05-25T17:20:50.072Z,94970.44
2019-05-25T17:23:18.702Z,94965.48
2019-05-25T17:25:47.312Z,94961.84
2019-05-25T17:28:15.954Z,94967.45
2019-05-25T17:30:46.952Z,94963.52
2019-05-25T17:33:15.708Z,94964.86
2019-05-25T17:35:45.141Z,94963.84
2019-05-25T17:38:13.876Z,94968.61
2019-05-25T17:40:42.505Z,94968.90
2019-05-25T17:43:11.184Z,94968.41
2019-05-25T17:45:39.806Z,94973.68
2019-05-25T17:48:08.456Z,94977.91
2019-05-25T17:50:38.554Z,94978.71
2019-05-25T17:53:07.186Z,94984.50
2019-05-25T17:55:35.901Z,94981.88
2019-05-25T17:58:04.861Z,94983.70
2019-05-25T18:00:42.105Z,94986.86
2019-05-25T18:03:10.834Z,94982.93
2019-05-25T18:05:39.483Z,94985.56
2019-05-25T18:08:08.417Z,94992.13
2019-05-25T18:10:51.874Z,94988.44
2019-05-25T18:13:07.550Z,94986.33
2019-05-25T18:15:36.181Z,94986.59
2019-05-25T18:18:06.275Z,94987.64
2019-05-25T18:20:34.903Z,94994.47
2019-05-25T18:23:03.765Z,94996.05
2019-05-25T18:25:32.417Z,95001.27
2019-05-25T18:28:01.121Z,95003.88
2019-05-25T18:30:30.361Z,95004.62
2019-05-25T18:32:59.068Z,94999.62
2019-05-25T18:35:27.834Z,95008.25
2019-05-25T18:37:56.460Z,95009.28
2019-05-25T18:40:25.320Z,95017.92
2019-05-25T18:42:53.956Z,95019.22
2019-05-25T18:45:22.623Z,95023.12
2019-05-25T18:47:51.250Z,95031.79
2019-05-25T18:50:20.609Z,95031.75
2019-05-25T18:52:49.243Z,95028.30
2019-05-25T18:55:18.547Z,95030.64
2019-05-25T18:57:47.222Z,95031.93
2019-05-25T19:00:16.361Z,95036.81
2019-05-25T19:02:45.069Z,95029.67
2019-05-25T19:05:15.184Z,95046.93
2019-05-25T19:07:43.832Z,95043.44
2019-05-25T19:10:13.110Z,95055.69
2019-05-25T19:12:41.795Z,95064.31
2019-05-25T19:15:11.435Z,95059.20
2019-05-25T19:17:40.170Z,95054.48
2019-05-25T19:20:09.748Z,95059.38
2019-05-25T19:22:38.525Z,95057.73
2019-05-25T19:25:08.655Z,95058.94
2019-05-25T19:27:37.374Z,95062.27
2019-05-25T19:30:07.941Z,95056.89
2019-05-25T19:32:36.585Z,95070.61
2019-05-25T19:35:07.497Z,95076.00
2019-05-25T19:37:36.144Z,95073.86
2019-05-25T19:40:09.569Z,95079.09
2019-05-25T19:42:38.385Z,95077.45
2019-05-25T19:45:08.915Z,95076.95
2019-05-25T19:47:37.574Z,95081.38
2019-05-25T19:50:09.733Z,95090.06
2019-05-25T19:52:38.432Z,95087.48
2019-05-25T19:55:07.677Z,95078.48
2019-05-25T19:57:36.295Z,95082.88
2019-05-25T20:00:09.534Z,95087.78
2019-05-25T20:02:38.425Z,95088.48
2019-05-25T20:05:16.514Z,95085.59
2019-05-25T20:07:38.037Z,95090.59
2019-05-25T20:10:08.576Z,95091.56
2019-05-25T20:12:37.213Z,95098.56
2019-05-25T20:15:09.748Z,95105.23
2019-05-25T20:17:38.389Z,95103.81
2019-05-25T20:20:08.825Z,95110.41
2019-05-25T20:22:37.466Z,95109.50
2019-05-25T20:25:07.032Z,95118.39
2019-05-25T20:27:35.672Z,95123.55
2019-05-25T20:30:06.793Z,95118.95
2019-05-25T20:32:35.683Z,95129.91
2019-05-25T20:35:06.047Z,95137.81
2019-05-25T20:37:34.679Z,95126.78
2019-05-25T20:40:04.275Z,95127.12
2019-05-25T20:42:32.943Z,95124.67
2019-05-25T20:45:01.580Z,95129.63
2019-05-25T20:47:30.263Z,95116.74
2019-05-25T20:49:58.899Z,95120.66
2019-05-25T20:52:27.581Z,95116.16
2019-05-25T20:54:56.207Z,95122.98
2019-05-25T20:57:24.875Z,95127.02
2019-05-25T20:59:53.449Z,95120.48
2019-05-25T21:02:22.085Z,95125.51
2019-05-25T21:04:50.751Z,95129.87
2019-05-25T21:07:19.456Z,95132.49
2019-05-25T21:09:48.085Z,95123.36
2019-05-25T21:12:16.718Z,95126.17
2019-05-25T21:14:45.379Z,95129.44
2019-05-25T21:17:14.020Z,95131.20
2019-05-25T21:19:42.659Z,95128.11
2019-05-25T21:22:11.305Z,95127.48
2019-05-25T21:24:39.864Z,95134.09
2019-05-25T21:27:08.501Z,95139.03
2019-05-25T21:29:37.100Z,95138.37
2019-05-25T21:32:05.759Z,95140.62
2019-05-25T21:34:34.220Z,95136.88
2019-05-25T21:37:02.855Z,95141.27
2019-05-25T21:39:31.515Z,95139.48
2019-05-25T21:42:00.073Z,95141.06
2019-05-25T21:44:28.638Z,95150.62
2019-05-25T21:46:57.325Z,95139.42
2019-05-25T21:49:25.961Z,95138.11
2019-05-25T21:51:54.583Z,95148.23
2019-05-25T21:54:23.235Z,95143.75
2019-05-25T21:56:51.910Z,95151.77
2019-05-25T21:59:20.588Z,95143.81
2019-05-25T22:01:49.211Z,95150.05
2019-05-25T22:04:17.877Z,95153.08
2019-05-25T22:06:46.513Z,95141.44
2019-05-25T22:09:15.138Z,95153.30
2019-05-25T22:11:43.852Z,95148.59
2019-05-25T22:14:12.495Z,95154.61
2019-05-25T22:16:41.066Z,95158.75
2019-05-25T22:19:09.627Z,95159.83
2019-05-25T22:21:38.280Z,95161.77
2019-05-25T22:24:06.906Z,95166.91
2019-05-25T22:26:35.462Z,95163.45
2019-05-25T22:29:04.281Z,95164.53
2019-05-25T22:31:32.962Z,95164.98
2019-05-25T22:34:01.661Z,95164.59
2019-05-25T22:36:39.727Z,95163.83
2019-05-25T22:39:00.645Z,95167.39
2019-05-25T22:41:29.656Z,95160.84
2019-05-25T22:43:58.336Z,95160.68
2019-05-25T22:46:27.049Z,95159.53
2019-05-25T22:48:56.023Z,95158.70
2019-05-25T22:51:24.651Z,95171.45
2019-05-25T22:53:53.290Z,95158.74
2019-05-25T22:56:21.927Z,95158.25
2019-05-25T22:58:51.510Z,95161.18
2019-05-25T23:01:20.571Z,95163.33
2019-05-25T23:03:49.246Z,95168.04
2019-05-25T23:06:17.803Z,95174.33
2019-05-25T23:08:46.453Z,95168.33
2019-05-25T23:11:16.945Z,95171.22
2019-05-25T23:13:45.565Z,95173.67
2019-05-25T23:16:14.208Z,95171.66
2019-05-25T23:18:42.835Z,95168.22
2019-05-25T23:21:11.825Z,95175.92
2019-05-25T23:23:40.457Z,95172.45
2019-05-25T23:26:09.983Z,95179.22
2019-05-25T23:28:38.558Z,95170.19
2019-05-25T23:31:09.175Z,95171.16
2019-05-25T23:33:38.792Z,95166.28
2019-05-25T23:36:07.636Z,95171.83
2019-05-25T23:38:36.693Z,95170.34
2019-05-25T23:41:05.428Z,95170.81
2019-05-25T23:43:35.719Z,95176.31
2019-05-25T23:46:04.355Z,95180.36
2019-05-25T23:48:33.374Z,95185.57
2019-05-25T23:51:02.249Z,95184.37
2019-05-25T23:53:30.737Z,95184.41
2019-05-25T23:55:59.783Z,95183.69
2019-05-25T23:58:28.796Z,95182.97
